createdAt,value
2023-01-10T00:01:13.700Z,99099.38
2023-01-10T00:04:16.227Z,99095.19
2023-01-10T00:07:18.701Z,99092.09
2023-01-10T00:10:21.598Z,99086.28
2023-01-10T00:13:24.231Z,99094.00
2023-01-10T00:16:26.863Z,99102.38
2023-01-10T00:19:29.391Z,99101.16
2023-01-10T00:22:31.838Z,99085.75
2023-01-10T00:25:36.041Z,99095.84
2023-01-10T00:28:39.525Z,99089.06
2023-01-10T00:31:42.089Z,99083.19
2023-01-10T00:34:44.660Z,99087.72
2023-01-10T00:37:47.203Z,99086.53
2023-01-10T00:40:49.904Z,99093.22
2023-01-10T00:43:58.059Z,99089.66
2023-01-10T00:47:00.613Z,99088.69
2023-01-10T00:50:05.976Z,99080.94
2023-01-10T00:53:09.081Z,99089.28
2023-01-10T00:56:11.538Z,99089.00
2023-01-10T00:59:13.922Z,99081.38
2023-01-10T01:02:16.646Z,99082.16
2023-01-10T01:05:19.634Z,99088.28
2023-01-10T01:08:22.571Z,99084.50
2023-01-10T01:11:26.016Z,99101.75
2023-01-10T01:14:28.605Z,99086.28
2023-01-10T01:17:31.074Z,99098.16
2023-01-10T01:20:35.163Z,99084.69
2023-01-10T01:23:37.775Z,99090.81
2023-01-10T01:26:42.656Z,99075.38
2023-01-10T01:29:45.342Z,99084.84
2023-01-10T01:32:47.985Z,99069.81
2023-01-10T01:35:50.801Z,99064.28
2023-01-10T01:38:53.164Z,99074.41
2023-01-10T01:41:58.452Z,99077.41
2023-01-10T01:45:09.932Z,99088.28
2023-01-10T01:48:21.077Z,99071.66
2023-01-10T01:51:29.014Z,99072.81
2023-01-10T01:54:32.917Z,99077.19
2023-01-10T01:57:35.705Z,99080.53
2023-01-10T02:00:38.294Z,99069.03
2023-01-10T02:03:45.255Z,99086.53
2023-01-10T02:06:51.408Z,99071.84
2023-01-10T02:10:03.749Z,99086.16
2023-01-10T02:13:09.344Z,99085.00
2023-01-10T02:16:12.088Z,99084.22
2023-01-10T02:19:52.898Z,99106.19
2023-01-10T02:23:34.044Z,99112.03
2023-01-10T02:26:54.750Z,99112.41
2023-01-10T02:30:11.354Z,99116.75
2023-01-10T02:33:33.301Z,99107.19
2023-01-10T02:36:38.534Z,99110.50
2023-01-10T02:39:52.430Z,99105.84
2023-01-10T02:43:14.711Z,99097.88
2023-01-10T02:46:25.310Z,99091.56
2023-01-10T02:49:27.953Z,99103.69
2023-01-10T02:52:31.543Z,99099.91
2023-01-10T02:55:56.089Z,99100.06
2023-01-10T02:59:32.742Z,99106.34
2023-01-10T03:02:44.713Z,99100.47
2023-01-10T03:06:08.074Z,99105.00
2023-01-10T03:09:21.890Z,99105.59
2023-01-10T03:12:27.177Z,99108.97
2023-01-10T03:15:33.615Z,99116.09
2023-01-10T03:18:46.839Z,99116.81
2023-01-10T03:21:54.107Z,99128.66
2023-01-10T03:24:59.764Z,99139.38
2023-01-10T03:28:52.254Z,99124.69
2023-01-10T03:32:00.761Z,99122.72
2023-01-10T03:35:04.618Z,99132.59
2023-01-10T03:38:15.830Z,99136.56
2023-01-10T03:41:56.115Z,99124.25
2023-01-10T03:45:08.898Z,99117.09
2023-01-10T03:48:14.984Z,99113.16
2023-01-10T03:51:18.913Z,99115.97
2023-01-10T03:54:21.444Z,99126.25
2023-01-10T03:57:24.890Z,99127.47
2023-01-10T04:00:27.558Z,99148.53
2023-01-10T04:03:30.001Z,99141.34
2023-01-10T04:06:32.632Z,99140.53
2023-01-10T04:09:35.161Z,99148.28
2023-01-10T04:12:37.642Z,99164.94
2023-01-10T04:15:40.015Z,99155.56
2023-01-10T04:18:42.496Z,99151.84
2023-01-10T04:21:45.118Z,99148.88
2023-01-10T04:24:48.723Z,99136.16
2023-01-10T04:27:52.257Z,99153.91
2023-01-10T04:30:54.697Z,99150.94
2023-01-10T04:33:57.192Z,99157.63
2023-01-10T04:36:59.576Z,99151.31
2023-01-10T04:40:02.250Z,99150.50
2023-01-10T04:43:04.696Z,99131.84
2023-01-10T04:46:07.350Z,99151.09
2023-01-10T04:49:10.702Z,99147.53
2023-01-10T04:52:13.263Z,99151.13
2023-01-10T04:55:15.752Z,99167.97
2023-01-10T04:58:18.181Z,99163.59
2023-01-10T05:01:25.217Z,99181.84
2023-01-10T05:04:27.731Z,99183.59
2023-01-10T05:07:30.117Z,99178.25
2023-01-10T05:10:32.655Z,99194.34
2023-01-10T05:13:35.207Z,99177.91
2023-01-10T05:16:37.719Z,99193.00
2023-01-10T05:19:40.796Z,99208.84
2023-01-10T05:22:43.319Z,99206.50
2023-01-10T05:25:45.840Z,99206.09
2023-01-10T05:28:48.717Z,99207.13
2023-01-10T05:31:51.861Z,99236.69
2023-01-10T05:34:54.314Z,99241.84
2023-01-10T05:37:56.892Z,99244.66
2023-01-10T05:41:00.263Z,99242.41
2023-01-10T05:44:02.741Z,99234.84
2023-01-10T05:47:05.285Z,99242.56
2023-01-10T05:50:08.550Z,99248.56
2023-01-10T05:53:11.264Z,99235.84
2023-01-10T05:56:13.662Z,99228.13
2023-01-10T05:59:27.580Z,99234.06
2023-01-10T06:02:30.787Z,99237.81
2023-01-10T06:05:33.333Z,99239.88
2023-01-10T06:08:37.328Z,99254.38
2023-01-10T06:11:41.392Z,99260.72
2023-01-10T06:14:44.027Z,99251.06
2023-01-10T06:17:46.596Z,99256.88
2023-01-10T06:20:50.326Z,99270.34
2023-01-10T06:23:52.766Z,99294.19
2023-01-10T06:26:55.166Z,99295.97
2023-01-10T06:29:59.291Z,99296.78
2023-01-10T06:33:06.664Z,99309.69
2023-01-10T06:36:09.634Z,99299.38
2023-01-10T06:39:12.566Z,99304.53
2023-01-10T06:42:15.971Z,99322.19
2023-01-10T06:45:18.872Z,99321.03
2023-01-10T06:48:21.948Z,99319.81
2023-01-10T06:51:24.502Z,99316.47
2023-01-10T06:54:26.972Z,99310.72
2023-01-10T06:57:29.799Z,99317.84
2023-01-10T07:00:32.503Z,99349.63
2023-01-10T07:03:35.133Z,99352.19
2023-01-10T07:06:38.656Z,99343.44
2023-01-10T07:09:42.289Z,99365.47
2023-01-10T07:12:44.956Z,99366.66
2023-01-10T07:15:47.397Z,99378.97
2023-01-10T07:18:49.883Z,99368.66
2023-01-10T07:21:52.625Z,99386.72
2023-01-10T07:24:55.413Z,99386.50
2023-01-10T07:27:58.307Z,99395.25
2023-01-10T07:31:02.605Z,99400.44
2023-01-10T07:34:05.254Z,99384.13
2023-01-10T07:37:07.882Z,99404.22
2023-01-10T07:40:11.835Z,99424.06
2023-01-10T07:43:14.429Z,99416.50
2023-01-10T07:46:17.532Z,99429.22
2023-01-10T07:49:20.055Z,99445.31
2023-01-10T07:52:22.648Z,99432.59
2023-01-10T07:55:25.561Z,99450.47
2023-01-10T07:58:29.154Z,99451.03
2023-01-10T08:01:32.389Z,99470.31
2023-01-10T08:04:34.868Z,99463.94
2023-01-10T08:07:38.039Z,99488.38
2023-01-10T08:10:40.975Z,99492.94
2023-01-10T08:13:43.450Z,99498.69
2023-01-10T08:16:45.932Z,99499.28
2023-01-10T08:19:48.467Z,99520.53
2023-01-10T08:22:51.312Z,99520.72
2023-01-10T08:25:54.411Z,99518.13
2023-01-10T08:28:56.968Z,99529.03
2023-01-10T08:31:59.844Z,99551.91
2023-01-10T08:35:02.455Z,99551.09
2023-01-10T08:38:05.045Z,99549.69
2023-01-10T08:41:07.481Z,99563.84
2023-01-10T08:44:12.064Z,99573.56
2023-01-10T08:47:15.090Z,99572.31
2023-01-10T08:50:17.611Z,99587.47
2023-01-10T08:53:20.069Z,99585.22
2023-01-10T08:56:22.660Z,99593.75
2023-01-10T08:59:25.295Z,99601.50
2023-01-10T09:02:27.926Z,99612.03
2023-01-10T09:05:30.298Z,99608.38
2023-01-10T09:08:32.833Z,99622.69
2023-01-10T09:11:35.872Z,99635.00
2023-01-10T09:14:38.700Z,99660.44
2023-01-10T09:17:41.123Z,99652.66
2023-01-10T09:20:43.728Z,99661.97
2023-01-10T09:23:47.171Z,99661.88
2023-01-10T09:26:49.679Z,99667.78
2023-01-10T09:29:52.148Z,99673.09
2023-01-10T09:32:56.279Z,99688.41
2023-01-10T09:35:59.203Z,99692.78
2023-01-10T09:39:01.762Z,99698.75
2023-01-10T09:42:31.540Z,99715.22
2023-01-10T09:45:40.435Z,99721.72
2023-01-10T09:49:05.105Z,99726.25
2023-01-10T09:52:21.134Z,99718.84
2023-01-10T09:55:33.139Z,99719.25
2023-01-10T09:58:38.530Z,99724.41
2023-01-10T10:01:41.031Z,99734.78
2023-01-10T10:04:49.681Z,99733.03
2023-01-10T10:07:58.446Z,99741.13
2023-01-10T10:11:25.112Z,99749.28
2023-01-10T10:14:38.939Z,99723.25
2023-01-10T10:17:49.534Z,99744.97
2023-01-10T10:21:17.019Z,99742.53
2023-01-10T10:24:34.511Z,99763.53
2023-01-10T10:28:09.567Z,99741.91
2023-01-10T10:31:18.257Z,99747.22
2023-01-10T10:34:36.547Z,99750.66
2023-01-10T10:37:44.204Z,99761.19
2023-01-10T10:40:49.093Z,99776.91
2023-01-10T10:43:54.593Z,99771.28
2023-01-10T10:47:01.104Z,99778.63
2023-01-10T10:50:23.814Z,99782.69
2023-01-10T10:53:26.747Z,99785.03
2023-01-10T10:56:30.350Z,99796.31
2023-01-10T10:59:32.872Z,99787.28
2023-01-10T11:03:12.685Z,99810.91
2023-01-10T11:06:17.207Z,99796.97
2023-01-10T11:09:35.865Z,99824.94
2023-01-10T11:12:42.148Z,99831.28
2023-01-10T11:15:47.479Z,99826.06
2023-01-10T11:19:08.870Z,99821.56
2023-01-10T11:22:16.390Z,99847.13
2023-01-10T11:25:21.916Z,99840.03
2023-01-10T11:28:31.384Z,99844.41
2023-01-10T11:31:36.540Z,99841.84
2023-01-10T11:34:39.873Z,99848.41
2023-01-10T11:37:42.307Z,99858.78
2023-01-10T11:40:59.075Z,99864.69
2023-01-10T11:44:29.082Z,99876.94
2023-01-10T11:47:38.052Z,99871.31
2023-01-10T11:50:50.482Z,99875.81
2023-01-10T11:53:59.778Z,99871.78
2023-01-10T11:57:02.332Z,99889.72
2023-01-10T12:00:10.435Z,99888.88
2023-01-10T12:03:37.592Z,99880.72
2023-01-10T12:06:45.851Z,99905.84
2023-01-10T12:10:00.674Z,99901.28
2023-01-10T12:13:30.964Z,99905.03
2023-01-10T12:16:35.117Z,99901.84
2023-01-10T12:19:37.625Z,99904.97
2023-01-10T12:22:43.190Z,99898.22
2023-01-10T12:25:46.979Z,99912.78
2023-01-10T12:28:54.195Z,99915.78
2023-01-10T12:31:59.834Z,99904.63
2023-01-10T12:35:09.743Z,99907.91
2023-01-10T12:38:55.841Z,99931.31
2023-01-10T12:42:16.761Z,99936.44
2023-01-10T12:45:37.940Z,99945.03
2023-01-10T12:48:50.130Z,99949.84
2023-01-10T12:51:58.518Z,99937.44
2023-01-10T12:55:03.168Z,99958.56
2023-01-10T12:58:12.441Z,99951.13
2023-01-10T13:01:19.055Z,99963.97
2023-01-10T13:04:23.920Z,99956.78
2023-01-10T13:07:33.380Z,99957.56
2023-01-10T13:10:41.657Z,99961.22
2023-01-10T13:13:52.246Z,99976.81
2023-01-10T13:17:04.816Z,99978.03
2023-01-10T13:20:18.115Z,99986.59
2023-01-10T13:23:51.786Z,99972.44
2023-01-10T13:27:02.260Z,99982.66
2023-01-10T13:30:05.560Z,99976.63
2023-01-10T13:33:18.664Z,99991.00
2023-01-10T13:36:31.540Z,100002.72
2023-01-10T13:39:40.575Z,99994.91
2023-01-10T13:43:05.955Z,100021.63
2023-01-10T13:46:17.954Z,100027.97
2023-01-10T13:49:39.880Z,100023.94
2023-01-10T13:52:42.464Z,100030.38
2023-01-10T13:55:53.738Z,100019.97
2023-01-10T13:59:15.066Z,100033.75
2023-01-10T14:02:31.495Z,100033.56
2023-01-10T14:05:34.298Z,100046.84
2023-01-10T14:08:38.189Z,100042.41
2023-01-10T14:11:43.473Z,100061.97
2023-01-10T14:14:57.123Z,100055.94
2023-01-10T14:18:01.259Z,100065.50
2023-01-10T14:21:09.096Z,100064.03
2023-01-10T14:24:25.730Z,100078.44
2023-01-10T14:27:50.987Z,100070.19
2023-01-10T14:31:08.614Z,100082.19
2023-01-10T14:34:16.523Z,100070.91
2023-01-10T14:37:37.385Z,100092.69
2023-01-10T14:40:47.210Z,100094.66
2023-01-10T14:44:17.775Z,100107.00
2023-01-10T14:47:34.048Z,100116.19
2023-01-10T14:50:36.688Z,100118.97
2023-01-10T14:53:39.246Z,100112.53
2023-01-10T14:56:47.319Z,100122.31
2023-01-10T14:59:51.222Z,100123.69
2023-01-10T15:02:53.975Z,100131.94
2023-01-10T15:05:57.638Z,100130.63
2023-01-10T15:09:00.942Z,100145.16
2023-01-10T15:12:06.805Z,100142.91
2023-01-10T15:15:16.774Z,100155.72
2023-01-10T15:18:38.588Z,100159.63
2023-01-10T15:21:43.357Z,100172.09
2023-01-10T15:24:58.263Z,100175.31
2023-01-10T15:28:02.816Z,100181.72
2023-01-10T15:31:08.179Z,100190.06
2023-01-10T15:34:19.635Z,100178.59
2023-01-10T15:37:33.918Z,100177.53
2023-01-10T15:40:37.860Z,100194.28
2023-01-10T15:43:40.442Z,100205.75
2023-01-10T15:46:57.494Z,100216.44
2023-01-10T15:50:00.375Z,100203.91
2023-01-10T15:53:06.250Z,100225.69
2023-01-10T15:56:13.467Z,100217.69
2023-01-10T15:59:37.030Z,100231.22
2023-01-10T16:02:40.714Z,100233.00
2023-01-10T16:05:54.916Z,100230.44
2023-01-10T16:09:04.100Z,100214.91
2023-01-10T16:12:25.701Z,100250.09
2023-01-10T16:15:36.057Z,100248.16
2023-01-10T16:18:38.549Z,100255.25
2023-01-10T16:21:44.394Z,100254.28
2023-01-10T16:24:47.605Z,100248.06
2023-01-10T16:27:50.213Z,100242.53
2023-01-10T16:30:52.912Z,100242.44
2023-01-10T16:33:55.399Z,100264.34
2023-01-10T16:36:57.797Z,100268.72
2023-01-10T16:40:00.505Z,100263.56
2023-01-10T16:43:18.017Z,100269.69
2023-01-10T16:46:20.802Z,100270.31
2023-01-10T16:49:23.970Z,100274.25
2023-01-10T16:52:26.730Z,100288.66
2023-01-10T16:55:44.871Z,100284.47
2023-01-10T16:58:51.406Z,100301.22
2023-01-10T17:01:56.878Z,100294.44
2023-01-10T17:04:59.469Z,100287.59
2023-01-10T17:08:01.977Z,100288.13
2023-01-10T17:11:07.274Z,100310.31
2023-01-10T17:14:14.568Z,100306.19
2023-01-10T17:17:17.177Z,100315.28
2023-01-10T17:20:19.903Z,100300.53
2023-01-10T17:23:23.459Z,100315.47
2023-01-10T17:26:25.888Z,100306.66
2023-01-10T17:29:30.296Z,100298.72
2023-01-10T17:32:33.481Z,100306.91
2023-01-10T17:35:39.840Z,100328.13
2023-01-10T17:38:43.219Z,100336.88
2023-01-10T17:41:45.595Z,100342.53
2023-01-10T17:44:48.002Z,100346.13
2023-01-10T17:47:52.775Z,100345.19
2023-01-10T17:51:00.365Z,100349.22
2023-01-10T17:54:03.022Z,100366.59
2023-01-10T17:57:06.348Z,100368.91
2023-01-10T18:00:09.655Z,100362.41
2023-01-10T18:03:12.490Z,100366.41
2023-01-10T18:06:23.476Z,100373.69
2023-01-10T18:09:26.968Z,100376.44
2023-01-10T18:12:29.634Z,100379.38
2023-01-10T18:15:32.141Z,100383.94
2023-01-10T18:18:34.662Z,100383.75
2023-01-10T18:21:37.272Z,100385.91
2023-01-10T18:24:39.946Z,100387.88
2023-01-10T18:27:43.095Z,100373.34
2023-01-10T18:30:45.751Z,100379.94
2023-01-10T18:33:48.493Z,100377.09
2023-01-10T18:36:51.189Z,100390.47
2023-01-10T18:39:53.721Z,100401.34
2023-01-10T18:42:58.453Z,100386.44
2023-01-10T18:46:05.403Z,100410.88
2023-01-10T18:49:08.672Z,100399.78
2023-01-10T18:52:11.260Z,100410.69
2023-01-10T18:55:13.842Z,100420.66
2023-01-10T18:58:16.889Z,100413.28
2023-01-10T19:01:22.209Z,100413.53
2023-01-10T19:04:25.285Z,100405.97
2023-01-10T19:07:28.327Z,100403.03
2023-01-10T19:10:37.398Z,100403.75
2023-01-10T19:13:54.045Z,100399.53
2023-01-10T19:16:56.496Z,100406.78
2023-01-10T19:19:59.045Z,100413.00
2023-01-10T19:23:01.511Z,100404.53
2023-01-10T19:26:04.262Z,100414.69
2023-01-10T19:29:06.980Z,100410.16
2023-01-10T19:32:09.761Z,100404.88
2023-01-10T19:35:12.551Z,100421.31
2023-01-10T19:38:15.019Z,100424.50
2023-01-10T19:41:17.746Z,100415.22
2023-01-10T19:44:20.236Z,100430.72
2023-01-10T19:47:22.889Z,100442.84
2023-01-10T19:50:25.971Z,100448.00
2023-01-10T19:53:28.413Z,100449.03
2023-01-10T19:56:31.654Z,100459.56
2023-01-10T19:59:34.508Z,100452.81
2023-01-10T20:02:37.413Z,100460.06
2023-01-10T20:05:40.137Z,100446.06
2023-01-10T20:08:44.462Z,100457.84
2023-01-10T20:11:46.999Z,100467.72
2023-01-10T20:14:51.807Z,100461.78
2023-01-10T20:17:54.211Z,100469.88
2023-01-10T20:20:57.064Z,100466.44
2023-01-10T20:23:59.953Z,100469.19
2023-01-10T20:27:09.367Z,100470.78
2023-01-10T20:30:14.074Z,100477.47
2023-01-10T20:33:16.616Z,100492.59
2023-01-10T20:36:21.866Z,100490.31
2023-01-10T20:39:25.793Z,100493.47
2023-01-10T20:42:28.186Z,100485.97
2023-01-10T20:45:30.679Z,100484.91
2023-01-10T20:48:34.109Z,100497.88
2023-01-10T20:51:37.502Z,100493.06
2023-01-10T20:54:40.125Z,100488.91
2023-01-10T20:57:42.725Z,100506.75
2023-01-10T21:00:45.342Z,100518.53
2023-01-10T21:03:48.352Z,100513.53
2023-01-10T21:06:50.862Z,100508.84
2023-01-10T21:09:53.677Z,100507.72
2023-01-10T21:12:56.180Z,100508.38
2023-01-10T21:15:58.713Z,100511.59
2023-01-10T21:19:01.655Z,100501.16
2023-01-10T21:22:04.289Z,100508.13
2023-01-10T21:25:06.996Z,100505.97
2023-01-10T21:28:10.043Z,100498.28
2023-01-10T21:31:17.238Z,100479.06
2023-01-10T21:34:20.187Z,100505.59
2023-01-10T21:37:22.705Z,100503.88
2023-01-10T21:40:27.318Z,100501.31
2023-01-10T21:43:32.197Z,100511.31
2023-01-10T21:46:34.934Z,100507.13
2023-01-10T21:49:37.397Z,100502.00
2023-01-10T21:52:40.552Z,100484.34
2023-01-10T21:55:44.467Z,100484.06
2023-01-10T21:58:48.154Z,100505.63
2023-01-10T22:01:50.559Z,100497.44
2023-01-10T22:04:54.894Z,100484.72
2023-01-10T22:07:58.547Z,100478.78
2023-01-10T22:11:00.959Z,100480.38
2023-01-10T22:14:03.618Z,100480.53
2023-01-10T22:17:06.218Z,100489.09
2023-01-10T22:20:09.654Z,100481.19
2023-01-10T22:23:13.123Z,100489.72
2023-01-10T22:26:16.601Z,100475.09
2023-01-10T22:29:20.670Z,100485.22
2023-01-10T22:32:23.440Z,100483.13
2023-01-10T22:35:28.749Z,100499.22
2023-01-10T22:38:32.832Z,100491.31
2023-01-10T22:41:35.620Z,100494.38
2023-01-10T22:44:38.275Z,100478.44
2023-01-10T22:47:40.767Z,100483.94
2023-01-10T22:50:49.428Z,100477.66
2023-01-10T22:53:53.760Z,100479.44
2023-01-10T22:56:56.247Z,100486.66
2023-01-10T22:59:58.682Z,100495.53
2023-01-10T23:03:01.737Z,100495.03
2023-01-10T23:06:04.577Z,100487.59
2023-01-10T23:09:06.975Z,100487.31
2023-01-10T23:12:09.326Z,100492.41
2023-01-10T23:15:12.146Z,100499.69
2023-01-10T23:18:16.635Z,100506.75
2023-01-10T23:21:19.144Z,100500.63
2023-01-10T23:24:21.821Z,100509.81
2023-01-10T23:27:24.330Z,100500.28
2023-01-10T23:30:26.841Z,100500.28
2023-01-10T23:33:29.667Z,100492.84
2023-01-10T23:36:32.148Z,100481.25
2023-01-10T23:39:34.575Z,100491.88
2023-01-10T23:42:37.161Z,100512.81
2023-01-10T23:45:39.648Z,100504.75
2023-01-10T23:48:43.249Z,100502.31
2023-01-10T23:51:46.089Z,100498.63
2023-01-10T23:54:48.654Z,100509.56
2023-01-10T23:57:51.081Z,100490.75
